< < Back
Terminal Aerodrome Forecast


Current Version              Previous Versions:   1  2  3  4  5  6  7  8  9  

Terminal Aerodrome Forecast

696
FTUS42 KFFC 021958 AAA
TAFCSG
TAF AMD
KCSG 021958Z 0220/0318 25008KT P6SM VCSH SCT030
      TEMPO 0220/0222 VRB15G25KT 6SM TSRA BKN035CB
     FM030000 24006KT P6SM BKN100
     FM030900 26006KT P6SM BKN015
     FM031400 26009KT P6SM BKN025 BKN250
     FM031600 27010G15KT P6SM SCT050=



Latest METAR

270
SAUS70 KWBC 031700 RRA
MTRCSG
METAR KCSG 031651Z 29010KT 10SM CLR 30/19 A3004 RMK AO2 SLP168
T03000194


USA.gov is the U.S. government's official web portal to all federal, state and local government web resources and services.